Weather at Nev Fish & Game Reg III Headquarters Heliport

Public forecast

Using degrees Fahrenheit for public forecast. Weather courtesy of forecast.io.

Closest aviation weather report (METAR) to Nev Fish & Game Reg III Headquarters Heliport

Closest report is North Las Vegas Metropolitan International Airport, 1.5 nm (2.7 km) NNE.

2023/01/26 21:53 (retrieved 1 hour ago)

KVGT 262153Z 10SM CLR 14/M08 A3042 RMK AO2 SLP322 T01391078

Closest aviation forecast (TAF) to Nev Fish & Game Reg III Headquarters Heliport

Closest forecast is North Las Vegas Metropolitan International Airport, 1.5 nm (2.7 km) NNE.

2023/01/26 19:42 Ammendment (retrieved 3 hours ago)

TAF AMD KVGT 261838Z 2619/2718 34015G23KT P6SM SKC FM262000 02012G22KT P6SM SKC FM270200 32006KT P6SM SKC